sensor_id;sensor_type;location;lat;lon;timestamp;temperature;humidity
20866;DHT22;10593;48.398;10.698;2023-07-02T00:01:46;23.40;52.80
20866;DHT22;10593;48.398;10.698;2023-07-02T00:04:13;23.40;52.80
20866;DHT22;10593;48.398;10.698;2023-07-02T00:06:44;23.30;52.80
20866;DHT22;10593;48.398;10.698;2023-07-02T00:09:13;23.40;52.90
20866;DHT22;10593;48.398;10.698;2023-07-02T00:11:39;23.40;52.90
20866;DHT22;10593;48.398;10.698;2023-07-02T00:14:08;23.40;52.90
20866;DHT22;10593;48.398;10.698;2023-07-02T00:16:37;23.40;52.90
20866;DHT22;10593;48.398;10.698;2023-07-02T00:19:03;23.30;52.80
20866;DHT22;10593;48.398;10.698;2023-07-02T00:21:30;23.30;52.80
20866;DHT22;10593;48.398;10.698;2023-07-02T00:23:59;23.30;52.90
20866;DHT22;10593;48.398;10.698;2023-07-02T00:26:26;23.30;52.90
20866;DHT22;10593;48.398;10.698;2023-07-02T00:28:54;23.30;53.00
20866;DHT22;10593;48.398;10.698;2023-07-02T00:31:21;23.30;53.10
20866;DHT22;10593;48.398;10.698;2023-07-02T00:33:48;23.30;53.10
20866;DHT22;10593;48.398;10.698;2023-07-02T00:36:14;23.20;53.10
20866;DHT22;10593;48.398;10.698;2023-07-02T00:38:45;23.20;53.10
20866;DHT22;10593;48.398;10.698;2023-07-02T00:41:12;23.20;53.20
20866;DHT22;10593;48.398;10.698;2023-07-02T00:43:38;23.20;53.10
20866;DHT22;10593;48.398;10.698;2023-07-02T00:46:11;23.20;53.20
20866;DHT22;10593;48.398;10.698;2023-07-02T00:48:43;23.20;53.30
20866;DHT22;10593;48.398;10.698;2023-07-02T00:51:17;23.20;53.30
20866;DHT22;10593;48.398;10.698;2023-07-02T00:53:45;23.20;53.40
20866;DHT22;10593;48.398;10.698;2023-07-02T00:56:12;23.20;53.40
20866;DHT22;10593;48.398;10.698;2023-07-02T00:58:41;23.20;53.60
20866;DHT22;10593;48.398;10.698;2023-07-02T01:01:17;23.10;53.60
20866;DHT22;10593;48.398;10.698;2023-07-02T01:03:56;23.10;53.50
20866;DHT22;10593;48.398;10.698;2023-07-02T01:06:33;23.10;53.70
20866;DHT22;10593;48.398;10.698;2023-07-02T01:09:04;23.10;53.70
20866;DHT22;10593;48.398;10.698;2023-07-02T01:11:43;23.10;53.70
20866;DHT22;10593;48.398;10.698;2023-07-02T01:14:15;23.10;53.90
20866;DHT22;10593;48.398;10.698;2023-07-02T01:16:47;23.10;53.90
20866;DHT22;10593;48.398;10.698;2023-07-02T01:19:52;23.10;54.00
20866;DHT22;10593;48.398;10.698;2023-07-02T01:22:22;23.00;54.00
20866;DHT22;10593;48.398;10.698;2023-07-02T01:24:52;23.00;54.00
20866;DHT22;10593;48.398;10.698;2023-07-02T01:27:20;23.00;54.00
20866;DHT22;10593;48.398;10.698;2023-07-02T01:29:47;23.00;54.10
20866;DHT22;10593;48.398;10.698;2023-07-02T01:32:16;23.00;54.20
20866;DHT22;10593;48.398;10.698;2023-07-02T01:34:42;23.00;54.30
20866;DHT22;10593;48.398;10.698;2023-07-02T01:37:13;23.00;54.20
20866;DHT22;10593;48.398;10.698;2023-07-02T01:39:42;23.00;54.30
20866;DHT22;10593;48.398;10.698;2023-07-02T01:42:19;23.00;54.40
20866;DHT22;10593;48.398;10.698;2023-07-02T01:44:46;23.00;54.60
20866;DHT22;10593;48.398;10.698;2023-07-02T01:47:13;23.00;54.10
20866;DHT22;10593;48.398;10.698;2023-07-02T01:49:39;23.00;53.70
20866;DHT22;10593;48.398;10.698;2023-07-02T01:52:05;22.90;53.60
20866;DHT22;10593;48.398;10.698;2023-07-02T01:54:33;22.90;53.10
20866;DHT22;10593;48.398;10.698;2023-07-02T01:56:59;22.80;53.00
20866;DHT22;10593;48.398;10.698;2023-07-02T01:59:26;22.80;53.30
20866;DHT22;10593;48.398;10.698;2023-07-02T02:01:52;22.80;53.50
20866;DHT22;10593;48.398;10.698;2023-07-02T02:04:17;22.80;53.60
20866;DHT22;10593;48.398;10.698;2023-07-02T02:06:43;22.70;53.70
20866;DHT22;10593;48.398;10.698;2023-07-02T02:09:09;22.70;53.80
20866;DHT22;10593;48.398;10.698;2023-07-02T02:11:39;22.70;54.00
20866;DHT22;10593;48.398;10.698;2023-07-02T02:14:06;22.70;54.10
20866;DHT22;10593;48.398;10.698;2023-07-02T02:16:32;22.60;54.00
20866;DHT22;10593;48.398;10.698;2023-07-02T02:18:59;22.60;54.20
20866;DHT22;10593;48.398;10.698;2023-07-02T02:21:26;22.60;54.20
20866;DHT22;10593;48.398;10.698;2023-07-02T02:23:52;22.60;54.20
20866;DHT22;10593;48.398;10.698;2023-07-02T02:26:18;22.50;54.30
20866;DHT22;10593;48.398;10.698;2023-07-02T02:28:43;22.50;54.40
20866;DHT22;10593;48.398;10.698;2023-07-02T02:31:09;22.50;54.40
20866;DHT22;10593;48.398;10.698;2023-07-02T02:33:35;22.50;54.60
20866;DHT22;10593;48.398;10.698;2023-07-02T02:36:01;22.50;54.70
20866;DHT22;10593;48.398;10.698;2023-07-02T02:38:27;22.50;54.70
20866;DHT22;10593;48.398;10.698;2023-07-02T02:40:53;22.50;54.70
20866;DHT22;10593;48.398;10.698;2023-07-02T02:43:18;22.50;54.90
20866;DHT22;10593;48.398;10.698;2023-07-02T02:45:46;22.40;54.90
20866;DHT22;10593;48.398;10.698;2023-07-02T02:48:12;22.40;55.00
20866;DHT22;10593;48.398;10.698;2023-07-02T02:50:38;22.40;55.10
20866;DHT22;10593;48.398;10.698;2023-07-02T02:53:09;22.40;55.30
20866;DHT22;10593;48.398;10.698;2023-07-02T02:55:36;22.40;55.40
20866;DHT22;10593;48.398;10.698;2023-07-02T02:58:02;22.40;55.60
20866;DHT22;10593;48.398;10.698;2023-07-02T03:00:28;22.30;55.60
20866;DHT22;10593;48.398;10.698;2023-07-02T03:02:53;22.30;55.60
20866;DHT22;10593;48.398;10.698;2023-07-02T03:05:19;22.30;55.60
20866;DHT22;10593;48.398;10.698;2023-07-02T03:07:45;22.30;55.70
20866;DHT22;10593;48.398;10.698;2023-07-02T03:10:11;22.30;55.50
20866;DHT22;10593;48.398;10.698;2023-07-02T03:12:36;22.30;55.60
20866;DHT22;10593;48.398;10.698;2023-07-02T03:15:02;22.30;55.70
20866;DHT22;10593;48.398;10.698;2023-07-02T03:17:28;22.20;55.60
20866;DHT22;10593;48.398;10.698;2023-07-02T03:19:53;22.20;55.70
20866;DHT22;10593;48.398;10.698;2023-07-02T03:22:19;22.20;55.70
20866;DHT22;10593;48.398;10.698;2023-07-02T03:24:45;22.20;55.70
20866;DHT22;10593;48.398;10.698;2023-07-02T03:27:10;22.20;56.20
20866;DHT22;10593;48.398;10.698;2023-07-02T03:29:36;22.10;55.50
20866;DHT22;10593;48.398;10.698;2023-07-02T03:32:03;22.10;55.60
20866;DHT22;10593;48.398;10.698;2023-07-02T03:34:30;22.10;55.70
20866;DHT22;10593;48.398;10.698;2023-07-02T03:36:55;22.10;55.70
20866;DHT22;10593;48.398;10.698;2023-07-02T03:39:21;22.10;55.90
20866;DHT22;10593;48.398;10.698;2023-07-02T03:41:47;22.10;56.00
20866;DHT22;10593;48.398;10.698;2023-07-02T03:44:12;22.10;56.20
20866;DHT22;10593;48.398;10.698;2023-07-02T03:46:38;22.10;56.20
20866;DHT22;10593;48.398;10.698;2023-07-02T03:49:04;22.00;56.10
20866;DHT22;10593;48.398;10.698;2023-07-02T03:51:30;22.00;56.20
20866;DHT22;10593;48.398;10.698;2023-07-02T03:53:58;22.00;56.20
20866;DHT22;10593;48.398;10.698;2023-07-02T03:56:24;22.00;56.20
20866;DHT22;10593;48.398;10.698;2023-07-02T03:58:50;22.00;56.30
20866;DHT22;10593;48.398;10.698;2023-07-02T04:01:15;21.90;56.20
20866;DHT22;10593;48.398;10.698;2023-07-02T04:03:52;21.90;56.20
20866;DHT22;10593;48.398;10.698;2023-07-02T04:06:18;21.90;55.90
20866;DHT22;10593;48.398;10.698;2023-07-02T04:08:44;21.90;55.90
20866;DHT22;10593;48.398;10.698;2023-07-02T04:11:11;21.90;56.10
20866;DHT22;10593;48.398;10.698;2023-07-02T04:13:38;21.90;56.20
20866;DHT22;10593;48.398;10.698;2023-07-02T04:16:04;21.90;56.10
20866;DHT22;10593;48.398;10.698;2023-07-02T04:18:30;21.90;56.20
20866;DHT22;10593;48.398;10.698;2023-07-02T04:20:57;21.90;56.20
20866;DHT22;10593;48.398;10.698;2023-07-02T04:23:24;21.80;56.10
20866;DHT22;10593;48.398;10.698;2023-07-02T04:25:50;21.80;56.20
20866;DHT22;10593;48.398;10.698;2023-07-02T04:28:16;21.80;56.40
20866;DHT22;10593;48.398;10.698;2023-07-02T04:30:42;21.80;56.40
20866;DHT22;10593;48.398;10.698;2023-07-02T04:33:08;21.80;56.30
20866;DHT22;10593;48.398;10.698;2023-07-02T04:35:34;21.80;56.20
20866;DHT22;10593;48.398;10.698;2023-07-02T04:38:00;21.80;56.10
20866;DHT22;10593;48.398;10.698;2023-07-02T04:40:26;21.80;56.10
20866;DHT22;10593;48.398;10.698;2023-07-02T04:42:52;21.80;56.10
20866;DHT22;10593;48.398;10.698;2023-07-02T04:45:23;21.80;56.10
20866;DHT22;10593;48.398;10.698;2023-07-02T04:47:50;21.80;56.10
20866;DHT22;10593;48.398;10.698;2023-07-02T04:50:17;21.80;56.10
20866;DHT22;10593;48.398;10.698;2023-07-02T04:52:44;21.80;56.00
20866;DHT22;10593;48.398;10.698;2023-07-02T04:55:10;21.80;55.90
20866;DHT22;10593;48.398;10.698;2023-07-02T04:57:36;21.80;55.90
20866;DHT22;10593;48.398;10.698;2023-07-02T05:00:02;21.80;55.90
20866;DHT22;10593;48.398;10.698;2023-07-02T05:02:29;21.80;55.80
20866;DHT22;10593;48.398;10.698;2023-07-02T05:04:55;21.80;55.80
20866;DHT22;10593;48.398;10.698;2023-07-02T05:07:21;21.80;55.80
20866;DHT22;10593;48.398;10.698;2023-07-02T05:09:47;21.80;55.80
20866;DHT22;10593;48.398;10.698;2023-07-02T05:12:13;21.80;55.80
20866;DHT22;10593;48.398;10.698;2023-07-02T05:14:39;21.80;55.90
20866;DHT22;10593;48.398;10.698;2023-07-02T05:17:05;21.80;56.10
20866;DHT22;10593;48.398;10.698;2023-07-02T05:19:31;21.80;56.20
20866;DHT22;10593;48.398;10.698;2023-07-02T05:21:56;21.80;56.20
20866;DHT22;10593;48.398;10.698;2023-07-02T05:24:22;21.80;56.20
20866;DHT22;10593;48.398;10.698;2023-07-02T05:26:47;21.80;56.20
20866;DHT22;10593;48.398;10.698;2023-07-02T05:29:13;21.80;56.30
20866;DHT22;10593;48.398;10.698;2023-07-02T05:31:39;21.80;56.50
20866;DHT22;10593;48.398;10.698;2023-07-02T05:34:05;21.80;56.60
20866;DHT22;10593;48.398;10.698;2023-07-02T05:36:31;21.80;56.60
20866;DHT22;10593;48.398;10.698;2023-07-02T05:38:56;21.80;56.50
20866;DHT22;10593;48.398;10.698;2023-07-02T05:41:22;21.80;56.60
20866;DHT22;10593;48.398;10.698;2023-07-02T05:43:48;21.80;56.60
20866;DHT22;10593;48.398;10.698;2023-07-02T05:46:15;21.80;56.70
20866;DHT22;10593;48.398;10.698;2023-07-02T05:48:43;21.80;56.60
20866;DHT22;10593;48.398;10.698;2023-07-02T05:51:09;21.70;56.60
20866;DHT22;10593;48.398;10.698;2023-07-02T05:53:36;21.80;56.60
20866;DHT22;10593;48.398;10.698;2023-07-02T05:56:03;21.70;56.50
20866;DHT22;10593;48.398;10.698;2023-07-02T05:58:29;21.70;56.50
20866;DHT22;10593;48.398;10.698;2023-07-02T06:00:55;21.70;56.60
20866;DHT22;10593;48.398;10.698;2023-07-02T06:03:21;21.70;56.60
20866;DHT22;10593;48.398;10.698;2023-07-02T06:05:50;21.70;56.70
20866;DHT22;10593;48.398;10.698;2023-07-02T06:08:17;21.80;56.80
20866;DHT22;10593;48.398;10.698;2023-07-02T06:10:45;21.80;56.70
20866;DHT22;10593;48.398;10.698;2023-07-02T06:13:12;21.70;56.70
20866;DHT22;10593;48.398;10.698;2023-07-02T06:15:38;21.70;56.70
20866;DHT22;10593;48.398;10.698;2023-07-02T06:18:04;21.70;56.70
20866;DHT22;10593;48.398;10.698;2023-07-02T06:20:29;21.70;56.80
20866;DHT22;10593;48.398;10.698;2023-07-02T06:22:55;21.70;57.40
20866;DHT22;10593;48.398;10.698;2023-07-02T06:25:20;21.70;57.20
20866;DHT22;10593;48.398;10.698;2023-07-02T06:27:46;21.70;57.00
20866;DHT22;10593;48.398;10.698;2023-07-02T06:30:12;21.70;57.20
20866;DHT22;10593;48.398;10.698;2023-07-02T06:32:38;21.70;57.30
20866;DHT22;10593;48.398;10.698;2023-07-02T06:35:04;21.70;57.40
20866;DHT22;10593;48.398;10.698;2023-07-02T06:37:32;21.70;57.20
20866;DHT22;10593;48.398;10.698;2023-07-02T06:39:58;21.70;57.40
20866;DHT22;10593;48.398;10.698;2023-07-02T06:42:24;21.70;57.30
20866;DHT22;10593;48.398;10.698;2023-07-02T06:44:50;21.70;57.20
20866;DHT22;10593;48.398;10.698;2023-07-02T06:47:16;21.70;57.20
20866;DHT22;10593;48.398;10.698;2023-07-02T06:49:42;21.70;57.10
20866;DHT22;10593;48.398;10.698;2023-07-02T06:52:08;21.70;57.00
20866;DHT22;10593;48.398;10.698;2023-07-02T06:54:33;21.70;57.00
20866;DHT22;10593;48.398;10.698;2023-07-02T06:56:59;21.60;57.00
20866;DHT22;10593;48.398;10.698;2023-07-02T06:59:25;21.60;57.20
20866;DHT22;10593;48.398;10.698;2023-07-02T07:01:51;21.70;57.40
20866;DHT22;10593;48.398;10.698;2023-07-02T07:04:17;21.60;57.30
20866;DHT22;10593;48.398;10.698;2023-07-02T07:06:43;21.70;57.40
20866;DHT22;10593;48.398;10.698;2023-07-02T07:09:09;21.60;57.60
20866;DHT22;10593;48.398;10.698;2023-07-02T07:11:35;21.70;57.70
20866;DHT22;10593;48.398;10.698;2023-07-02T07:14:00;21.70;57.40
20866;DHT22;10593;48.398;10.698;2023-07-02T07:16:26;21.70;57.30
20866;DHT22;10593;48.398;10.698;2023-07-02T07:18:52;21.70;57.20
20866;DHT22;10593;48.398;10.698;2023-07-02T07:21:17;21.70;57.20
20866;DHT22;10593;48.398;10.698;2023-07-02T07:23:43;21.70;57.30
20866;DHT22;10593;48.398;10.698;2023-07-02T07:26:08;21.70;57.40
20866;DHT22;10593;48.398;10.698;2023-07-02T07:28:34;21.70;57.60
20866;DHT22;10593;48.398;10.698;2023-07-02T07:31:01;21.70;57.40
20866;DHT22;10593;48.398;10.698;2023-07-02T07:33:26;21.80;57.80
20866;DHT22;10593;48.398;10.698;2023-07-02T07:35:52;21.70;57.00
20866;DHT22;10593;48.398;10.698;2023-07-02T07:38:18;21.80;57.10
20866;DHT22;10593;48.398;10.698;2023-07-02T07:40:44;21.80;57.20
20866;DHT22;10593;48.398;10.698;2023-07-02T07:43:10;21.80;57.30
20866;DHT22;10593;48.398;10.698;2023-07-02T07:45:36;21.80;57.10
20866;DHT22;10593;48.398;10.698;2023-07-02T07:48:02;21.80;56.70
20866;DHT22;10593;48.398;10.698;2023-07-02T07:50:28;21.80;56.40
20866;DHT22;10593;48.398;10.698;2023-07-02T07:52:54;21.80;56.10
20866;DHT22;10593;48.398;10.698;2023-07-02T07:55:19;21.90;56.00
20866;DHT22;10593;48.398;10.698;2023-07-02T07:57:45;21.90;55.90
20866;DHT22;10593;48.398;10.698;2023-07-02T08:00:11;21.90;55.50
20866;DHT22;10593;48.398;10.698;2023-07-02T08:02:38;21.90;55.50
20866;DHT22;10593;48.398;10.698;2023-07-02T08:05:04;21.90;55.80
20866;DHT22;10593;48.398;10.698;2023-07-02T08:07:31;21.90;55.90
20866;DHT22;10593;48.398;10.698;2023-07-02T08:09:58;21.90;55.80
20866;DHT22;10593;48.398;10.698;2023-07-02T08:12:24;21.90;56.00
20866;DHT22;10593;48.398;10.698;2023-07-02T08:14:52;22.00;55.90
20866;DHT22;10593;48.398;10.698;2023-07-02T08:17:17;22.10;55.80
20866;DHT22;10593;48.398;10.698;2023-07-02T08:19:43;22.10;55.70
20866;DHT22;10593;48.398;10.698;2023-07-02T08:22:09;22.10;55.60
20866;DHT22;10593;48.398;10.698;2023-07-02T08:24:34;22.20;55.60
20866;DHT22;10593;48.398;10.698;2023-07-02T08:27:00;22.20;55.70
20866;DHT22;10593;48.398;10.698;2023-07-02T08:29:30;22.30;55.30
20866;DHT22;10593;48.398;10.698;2023-07-02T08:31:56;22.30;55.00
20866;DHT22;10593;48.398;10.698;2023-07-02T08:34:22;22.30;55.00
20866;DHT22;10593;48.398;10.698;2023-07-02T08:36:48;22.40;55.20
20866;DHT22;10593;48.398;10.698;2023-07-02T08:39:14;22.40;54.90
20866;DHT22;10593;48.398;10.698;2023-07-02T08:41:47;22.40;55.10
20866;DHT22;10593;48.398;10.698;2023-07-02T08:44:20;22.50;54.00
20866;DHT22;10593;48.398;10.698;2023-07-02T08:46:49;22.50;53.80
20866;DHT22;10593;48.398;10.698;2023-07-02T08:49:16;22.50;53.80
20866;DHT22;10593;48.398;10.698;2023-07-02T08:51:45;22.60;53.60
20866;DHT22;10593;48.398;10.698;2023-07-02T08:54:11;22.60;53.40
20866;DHT22;10593;48.398;10.698;2023-07-02T08:56:38;22.60;53.80
20866;DHT22;10593;48.398;10.698;2023-07-02T08:59:07;22.60;53.80
20866;DHT22;10593;48.398;10.698;2023-07-02T09:01:43;22.70;53.70
20866;DHT22;10593;48.398;10.698;2023-07-02T09:04:16;22.70;53.50
20866;DHT22;10593;48.398;10.698;2023-07-02T09:07:03;22.70;53.10
20866;DHT22;10593;48.398;10.698;2023-07-02T09:09:29;22.80;53.00
20866;DHT22;10593;48.398;10.698;2023-07-02T09:11:55;22.90;52.70
20866;DHT22;10593;48.398;10.698;2023-07-02T09:14:28;22.90;52.80
20866;DHT22;10593;48.398;10.698;2023-07-02T09:17:07;23.00;52.30
20866;DHT22;10593;48.398;10.698;2023-07-02T09:19:47;23.00;52.30
20866;DHT22;10593;48.398;10.698;2023-07-02T09:22:15;23.10;52.00
20866;DHT22;10593;48.398;10.698;2023-07-02T09:24:41;23.10;51.90
20866;DHT22;10593;48.398;10.698;2023-07-02T09:27:07;23.10;51.90
20866;DHT22;10593;48.398;10.698;2023-07-02T09:29:34;23.20;51.40
20866;DHT22;10593;48.398;10.698;2023-07-02T09:32:01;23.20;51.10
20866;DHT22;10593;48.398;10.698;2023-07-02T09:34:33;23.30;50.80
20866;DHT22;10593;48.398;10.698;2023-07-02T09:37:02;23.30;50.40
20866;DHT22;10593;48.398;10.698;2023-07-02T09:39:31;23.30;50.40
20866;DHT22;10593;48.398;10.698;2023-07-02T09:42:00;23.40;50.40
20866;DHT22;10593;48.398;10.698;2023-07-02T09:44:32;23.40;50.10
20866;DHT22;10593;48.398;10.698;2023-07-02T09:47:03;23.40;50.00
20866;DHT22;10593;48.398;10.698;2023-07-02T09:49:58;23.40;49.90
20866;DHT22;10593;48.398;10.698;2023-07-02T09:52:25;23.40;50.40
20866;DHT22;10593;48.398;10.698;2023-07-02T09:54:52;23.50;50.10
20866;DHT22;10593;48.398;10.698;2023-07-02T09:57:18;23.50;50.10
20866;DHT22;10593;48.398;10.698;2023-07-02T09:59:45;23.50;49.80
20866;DHT22;10593;48.398;10.698;2023-07-02T10:02:12;23.60;49.50
20866;DHT22;10593;48.398;10.698;2023-07-02T10:04:46;23.60;49.50
20866;DHT22;10593;48.398;10.698;2023-07-02T10:07:13;23.60;49.30
20866;DHT22;10593;48.398;10.698;2023-07-02T10:09:51;23.60;49.40
20866;DHT22;10593;48.398;10.698;2023-07-02T10:12:24;23.60;49.40
20866;DHT22;10593;48.398;10.698;2023-07-02T10:14:53;23.70;49.30
20866;DHT22;10593;48.398;10.698;2023-07-02T10:17:31;23.70;49.60
20866;DHT22;10593;48.398;10.698;2023-07-02T10:19:59;23.70;48.70
20866;DHT22;10593;48.398;10.698;2023-07-02T10:22:26;23.70;48.70
20866;DHT22;10593;48.398;10.698;2023-07-02T10:24:59;23.70;48.80
20866;DHT22;10593;48.398;10.698;2023-07-02T10:27:38;23.80;48.60
20866;DHT22;10593;48.398;10.698;2023-07-02T10:30:06;23.70;48.50
20866;DHT22;10593;48.398;10.698;2023-07-02T10:32:34;23.80;48.60
20866;DHT22;10593;48.398;10.698;2023-07-02T10:35:22;23.80;48.80
20866;DHT22;10593;48.398;10.698;2023-07-02T10:37:47;23.80;48.60
20866;DHT22;10593;48.398;10.698;2023-07-02T10:40:13;23.80;48.80
20866;DHT22;10593;48.398;10.698;2023-07-02T10:42:48;23.80;48.70
20866;DHT22;10593;48.398;10.698;2023-07-02T10:45:16;23.80;48.50
20866;DHT22;10593;48.398;10.698;2023-07-02T10:47:42;23.80;48.40
20866;DHT22;10593;48.398;10.698;2023-07-02T10:50:21;23.80;48.40
20866;DHT22;10593;48.398;10.698;2023-07-02T10:52:47;23.80;48.20
20866;DHT22;10593;48.398;10.698;2023-07-02T10:55:21;23.80;48.20
20866;DHT22;10593;48.398;10.698;2023-07-02T10:57:49;23.80;48.40
20866;DHT22;10593;48.398;10.698;2023-07-02T11:00:17;23.80;48.60
20866;DHT22;10593;48.398;10.698;2023-07-02T11:02:43;23.80;48.70
20866;DHT22;10593;48.398;10.698;2023-07-02T11:05:09;23.80;48.50
20866;DHT22;10593;48.398;10.698;2023-07-02T11:07:39;23.80;48.40
20866;DHT22;10593;48.398;10.698;2023-07-02T11:10:10;23.90;48.60
20866;DHT22;10593;48.398;10.698;2023-07-02T11:12:42;23.90;48.50
20866;DHT22;10593;48.398;10.698;2023-07-02T11:15:17;23.90;48.40
20866;DHT22;10593;48.398;10.698;2023-07-02T11:17:43;23.90;48.30
20866;DHT22;10593;48.398;10.698;2023-07-02T11:20:10;23.80;48.30
20866;DHT22;10593;48.398;10.698;2023-07-02T11:22:38;23.90;48.20
20866;DHT22;10593;48.398;10.698;2023-07-02T11:27:45;23.90;49.20
20866;DHT22;10593;48.398;10.698;2023-07-02T11:30:11;23.90;49.40
20866;DHT22;10593;48.398;10.698;2023-07-02T11:35:17;23.90;50.00
20866;DHT22;10593;48.398;10.698;2023-07-02T11:37:44;23.90;50.20
20866;DHT22;10593;48.398;10.698;2023-07-02T11:40:10;23.90;50.40
20866;DHT22;10593;48.398;10.698;2023-07-02T11:42:36;23.90;50.30
20866;DHT22;10593;48.398;10.698;2023-07-02T11:45:03;23.90;50.50
20866;DHT22;10593;48.398;10.698;2023-07-02T11:47:29;23.90;50.90
20866;DHT22;10593;48.398;10.698;2023-07-02T11:49:55;23.90;50.70
20866;DHT22;10593;48.398;10.698;2023-07-02T11:52:21;24.00;50.40
20866;DHT22;10593;48.398;10.698;2023-07-02T11:54:48;24.00;50.40
20866;DHT22;10593;48.398;10.698;2023-07-02T11:57:13;24.00;50.40
20866;DHT22;10593;48.398;10.698;2023-07-02T11:59:41;24.00;49.90
20866;DHT22;10593;48.398;10.698;2023-07-02T12:02:07;24.00;49.70
20866;DHT22;10593;48.398;10.698;2023-07-02T12:04:32;24.10;50.00
20866;DHT22;10593;48.398;10.698;2023-07-02T12:06:59;24.10;49.90
20866;DHT22;10593;48.398;10.698;2023-07-02T12:09:26;24.10;49.40
20866;DHT22;10593;48.398;10.698;2023-07-02T12:11:53;24.10;48.40
20866;DHT22;10593;48.398;10.698;2023-07-02T12:14:18;24.10;48.10
20866;DHT22;10593;48.398;10.698;2023-07-02T12:16:44;24.20;47.90
20866;DHT22;10593;48.398;10.698;2023-07-02T12:19:10;24.10;47.80
20866;DHT22;10593;48.398;10.698;2023-07-02T12:21:35;24.20;47.70
20866;DHT22;10593;48.398;10.698;2023-07-02T12:24:02;24.10;47.30
20866;DHT22;10593;48.398;10.698;2023-07-02T12:26:28;24.20;47.60
20866;DHT22;10593;48.398;10.698;2023-07-02T12:28:54;24.20;47.10
20866;DHT22;10593;48.398;10.698;2023-07-02T12:31:20;24.20;46.80
20866;DHT22;10593;48.398;10.698;2023-07-02T12:33:45;24.20;46.80
20866;DHT22;10593;48.398;10.698;2023-07-02T12:36:11;24.20;47.00
20866;DHT22;10593;48.398;10.698;2023-07-02T12:38:39;24.20;47.10
20866;DHT22;10593;48.398;10.698;2023-07-02T12:41:04;24.20;46.80
20866;DHT22;10593;48.398;10.698;2023-07-02T12:43:30;24.20;46.70
20866;DHT22;10593;48.398;10.698;2023-07-02T12:45:55;24.20;46.50
20866;DHT22;10593;48.398;10.698;2023-07-02T12:48:21;24.20;46.70
20866;DHT22;10593;48.398;10.698;2023-07-02T12:50:58;24.30;46.40
20866;DHT22;10593;48.398;10.698;2023-07-02T12:53:25;24.30;46.00
20866;DHT22;10593;48.398;10.698;2023-07-02T12:55:52;24.30;46.00
20866;DHT22;10593;48.398;10.698;2023-07-02T12:58:18;24.30;45.70
20866;DHT22;10593;48.398;10.698;2023-07-02T13:00:44;24.30;45.50
20866;DHT22;10593;48.398;10.698;2023-07-02T13:03:12;24.30;44.90
20866;DHT22;10593;48.398;10.698;2023-07-02T13:05:39;24.30;44.60
20866;DHT22;10593;48.398;10.698;2023-07-02T13:08:05;24.40;44.90
20866;DHT22;10593;48.398;10.698;2023-07-02T13:10:33;24.40;44.80
20866;DHT22;10593;48.398;10.698;2023-07-02T13:12:59;24.40;44.90
20866;DHT22;10593;48.398;10.698;2023-07-02T13:15:25;24.50;45.20
20866;DHT22;10593;48.398;10.698;2023-07-02T13:17:51;24.50;44.70
20866;DHT22;10593;48.398;10.698;2023-07-02T13:20:17;24.50;44.50
20866;DHT22;10593;48.398;10.698;2023-07-02T13:22:42;24.50;44.10
20866;DHT22;10593;48.398;10.698;2023-07-02T13:25:08;24.50;44.10
20866;DHT22;10593;48.398;10.698;2023-07-02T13:27:34;24.60;43.80
20866;DHT22;10593;48.398;10.698;2023-07-02T13:30:00;24.60;43.80
20866;DHT22;10593;48.398;10.698;2023-07-02T13:32:26;24.60;43.90
20866;DHT22;10593;48.398;10.698;2023-07-02T13:34:51;24.60;44.20
20866;DHT22;10593;48.398;10.698;2023-07-02T13:37:17;24.60;44.20
20866;DHT22;10593;48.398;10.698;2023-07-02T13:39:45;24.70;44.40
20866;DHT22;10593;48.398;10.698;2023-07-02T13:42:11;24.70;44.30
20866;DHT22;10593;48.398;10.698;2023-07-02T13:44:36;24.70;44.60
20866;DHT22;10593;48.398;10.698;2023-07-02T13:47:02;24.80;44.60
20866;DHT22;10593;48.398;10.698;2023-07-02T13:49:28;24.80;45.00
20866;DHT22;10593;48.398;10.698;2023-07-02T13:51:53;24.90;45.60
20866;DHT22;10593;48.398;10.698;2023-07-02T13:54:19;24.90;46.20
20866;DHT22;10593;48.398;10.698;2023-07-02T13:56:46;25.00;46.40
20866;DHT22;10593;48.398;10.698;2023-07-02T13:59:12;25.00;45.90
20866;DHT22;10593;48.398;10.698;2023-07-02T14:01:38;25.00;45.60
20866;DHT22;10593;48.398;10.698;2023-07-02T14:04:04;25.10;45.70
20866;DHT22;10593;48.398;10.698;2023-07-02T14:06:30;25.10;46.00
20866;DHT22;10593;48.398;10.698;2023-07-02T14:08:56;25.10;45.40
20866;DHT22;10593;48.398;10.698;2023-07-02T14:11:23;25.10;45.20
20866;DHT22;10593;48.398;10.698;2023-07-02T14:13:50;25.10;45.20
20866;DHT22;10593;48.398;10.698;2023-07-02T14:16:16;25.10;45.50
20866;DHT22;10593;48.398;10.698;2023-07-02T14:18:41;25.10;45.70
20866;DHT22;10593;48.398;10.698;2023-07-02T14:21:07;25.10;45.40
20866;DHT22;10593;48.398;10.698;2023-07-02T14:23:33;25.20;45.30
20866;DHT22;10593;48.398;10.698;2023-07-02T14:25:59;25.20;45.40
20866;DHT22;10593;48.398;10.698;2023-07-02T14:28:24;25.20;45.00
20866;DHT22;10593;48.398;10.698;2023-07-02T14:30:58;25.20;44.20
20866;DHT22;10593;48.398;10.698;2023-07-02T14:33:26;25.20;43.50
20866;DHT22;10593;48.398;10.698;2023-07-02T14:35:53;25.20;43.70
20866;DHT22;10593;48.398;10.698;2023-07-02T14:38:19;25.20;43.60
20866;DHT22;10593;48.398;10.698;2023-07-02T14:40:45;25.20;43.70
20866;DHT22;10593;48.398;10.698;2023-07-02T14:43:12;25.20;43.80
20866;DHT22;10593;48.398;10.698;2023-07-02T14:45:52;25.20;43.90
20866;DHT22;10593;48.398;10.698;2023-07-02T14:48:20;25.30;44.20
20866;DHT22;10593;48.398;10.698;2023-07-02T14:50:51;25.30;44.50
20866;DHT22;10593;48.398;10.698;2023-07-02T14:53:19;25.30;44.80
20866;DHT22;10593;48.398;10.698;2023-07-02T14:55:46;25.30;44.90
20866;DHT22;10593;48.398;10.698;2023-07-02T14:58:14;25.30;44.90
20866;DHT22;10593;48.398;10.698;2023-07-02T15:00:48;25.30;44.90
20866;DHT22;10593;48.398;10.698;2023-07-02T15:03:15;25.30;44.90
20866;DHT22;10593;48.398;10.698;2023-07-02T15:05:41;25.30;44.70
20866;DHT22;10593;48.398;10.698;2023-07-02T15:08:08;25.30;44.70
20866;DHT22;10593;48.398;10.698;2023-07-02T15:10:35;25.30;44.70
20866;DHT22;10593;48.398;10.698;2023-07-02T15:13:04;25.30;44.40
20866;DHT22;10593;48.398;10.698;2023-07-02T15:15:31;25.40;44.60
20866;DHT22;10593;48.398;10.698;2023-07-02T15:17:57;25.40;44.40
20866;DHT22;10593;48.398;10.698;2023-07-02T15:20:23;25.40;44.10
20866;DHT22;10593;48.398;10.698;2023-07-02T15:22:49;25.40;43.70